createdAt,value
2018-09-02T00:00:41.675Z,11.3
2018-09-02T00:01:42.033Z,11.3
2018-09-02T00:02:41.957Z,11.3
2018-09-02T00:03:41.887Z,11.3
2018-09-02T00:04:41.797Z,11.3
2018-09-02T00:05:41.706Z,11.3
2018-09-02T00:06:41.608Z,11.3
2018-09-02T00:07:41.551Z,11.3
2018-09-02T00:08:41.456Z,11.4
2018-09-02T00:09:41.352Z,11.3
2018-09-02T00:10:41.314Z,11.4
2018-09-02T00:11:41.670Z,11.4
2018-09-02T00:12:41.599Z,11.5
2018-09-02T00:13:41.491Z,11.5
2018-09-02T00:14:41.402Z,11.5
2018-09-02T00:15:41.318Z,11.5
2018-09-02T00:16:41.233Z,11.5
2018-09-02T00:17:41.176Z,11.6
2018-09-02T00:18:41.089Z,11.5
2018-09-02T00:19:40.997Z,11.5
2018-09-02T00:20:41.504Z,11.5
2018-09-02T00:21:41.871Z,11.5
2018-09-02T00:22:41.777Z,11.5
2018-09-02T00:23:41.695Z,11.5
2018-09-02T00:24:41.595Z,11.6
2018-09-02T00:25:41.508Z,11.7
2018-09-02T00:26:41.433Z,11.7
2018-09-02T00:27:41.351Z,11.7
2018-09-02T00:28:41.268Z,11.7
2018-09-02T00:29:41.262Z,11.6
2018-09-02T00:30:41.169Z,11.6
2018-09-02T00:31:41.494Z,11.6
2018-09-02T00:32:41.395Z,11.6
2018-09-02T00:33:41.487Z,11.7
2018-09-02T00:34:41.768Z,11.7
2018-09-02T00:35:41.697Z,11.7
2018-09-02T00:36:41.612Z,11.7
2018-09-02T00:37:41.531Z,11.7
2018-09-02T00:38:41.458Z,11.7
2018-09-02T00:39:41.368Z,11.7
2018-09-02T00:40:41.273Z,11.9
2018-09-02T00:41:41.629Z,11.7
2018-09-02T00:42:41.550Z,11.7
2018-09-02T00:43:41.466Z,11.7
2018-09-02T00:44:41.385Z,11.7
2018-09-02T00:45:41.283Z,11.7
2018-09-02T00:46:41.191Z,11.7
2018-09-02T00:47:41.097Z,11.7
2018-09-02T00:48:41.000Z,11.7
2018-09-02T00:49:40.917Z,11.6
2018-09-02T00:50:40.815Z,11.6
2018-09-02T00:51:41.205Z,11.5
2018-09-02T00:52:41.124Z,11.5
2018-09-02T00:53:41.036Z,11.5
2018-09-02T00:54:40.974Z,11.5
2018-09-02T00:55:40.885Z,11.5
2018-09-02T00:56:40.804Z,11.5
2018-09-02T00:57:40.708Z,11.4
2018-09-02T00:58:40.614Z,11.5
2018-09-02T00:59:40.543Z,11.4
2018-09-02T01:00:40.459Z,11.4
2018-09-02T01:01:40.857Z,11.4
2018-09-02T01:02:40.773Z,11.4
2018-09-02T01:03:40.702Z,11.4
2018-09-02T01:04:40.635Z,11.4
2018-09-02T01:05:40.553Z,11.4
2018-09-02T01:06:40.460Z,11.5
2018-09-02T01:07:40.361Z,11.4
2018-09-02T01:08:40.287Z,11.4
2018-09-02T01:09:40.199Z,11.4
2018-09-02T01:10:40.135Z,11.4
2018-09-02T01:11:40.497Z,11.4
2018-09-02T01:12:40.406Z,11.4
2018-09-02T01:13:40.323Z,11.4
2018-09-02T01:14:40.212Z,11.4
2018-09-02T01:15:40.137Z,11.3
2018-09-02T01:16:40.081Z,11.4
2018-09-02T01:17:39.986Z,11.3
2018-09-02T01:18:39.885Z,11.4
2018-09-02T01:19:39.801Z,11.3
2018-09-02T01:20:39.722Z,11.4
2018-09-02T01:21:40.109Z,11.3
2018-09-02T01:22:40.021Z,11.4
2018-09-02T01:23:39.935Z,11.4
2018-09-02T01:24:39.829Z,11.4
2018-09-02T01:25:39.741Z,11.3
2018-09-02T01:26:39.672Z,11.4
2018-09-02T01:27:39.571Z,11.3
2018-09-02T01:28:39.480Z,11.3
2018-09-02T01:29:39.381Z,11.2
2018-09-02T01:30:39.286Z,11.2
2018-09-02T01:31:39.705Z,11.2
2018-09-02T01:32:39.610Z,11.3
2018-09-02T01:33:39.527Z,11.3
2018-09-02T01:34:39.436Z,11.4
2018-09-02T01:35:39.345Z,11.2
2018-09-02T01:36:39.284Z,11.2
2018-09-02T01:37:39.185Z,11.2
2018-09-02T01:38:39.093Z,11.3
2018-09-02T01:39:38.998Z,11.2
2018-09-02T01:40:38.904Z,11.2
2018-09-02T01:41:39.297Z,11.2
2018-09-02T01:42:39.197Z,11.3
2018-09-02T01:43:39.110Z,11.3
2018-09-02T01:44:39.036Z,11.3
2018-09-02T01:45:38.935Z,11.3
2018-09-02T01:46:38.843Z,11.3
2018-09-02T01:47:38.759Z,11.4
2018-09-02T01:48:38.671Z,11.3
2018-09-02T01:49:38.588Z,11.3
2018-09-02T01:50:38.488Z,11.3
2018-09-02T01:51:38.849Z,11.4
2018-09-02T01:52:38.786Z,11.3
2018-09-02T01:53:38.688Z,11.3
2018-09-02T01:54:38.596Z,11.3
2018-09-02T01:55:38.523Z,11.4
2018-09-02T01:56:38.439Z,11.4
2018-09-02T01:57:38.361Z,11.4
2018-09-02T01:58:38.308Z,11.4
2018-09-02T01:59:38.223Z,11.5
2018-09-02T02:00:38.117Z,11.5
2018-09-02T02:01:38.466Z,11.5
2018-09-02T02:02:38.375Z,11.4
2018-09-02T02:03:38.310Z,11.5
2018-09-02T02:04:38.218Z,11.5
2018-09-02T02:05:38.136Z,11.5
2018-09-02T02:06:38.040Z,11.4
2018-09-02T02:07:37.946Z,11.4
2018-09-02T02:08:37.882Z,11.4
2018-09-02T02:09:40.765Z,11.4
2018-09-02T02:10:40.687Z,11.4
2018-09-02T02:11:41.030Z,11.4
2018-09-02T02:12:40.925Z,11.3
2018-09-02T02:13:40.859Z,11.4
2018-09-02T02:14:40.765Z,11.4
2018-09-02T02:15:40.676Z,11.4
2018-09-02T02:16:40.812Z,11.4
2018-09-02T02:17:40.735Z,11.4
2018-09-02T02:18:40.642Z,11.4
2018-09-02T02:19:40.566Z,11.3
2018-09-02T02:20:40.476Z,11.3
2018-09-02T02:21:40.842Z,11.3
2018-09-02T02:22:40.751Z,11.3
2018-09-02T02:23:40.656Z,11.4
2018-09-02T02:24:40.609Z,11.3
2018-09-02T02:25:40.520Z,11.3
2018-09-02T02:26:40.666Z,11.3
2018-09-02T02:27:40.580Z,11.3
2018-09-02T02:28:40.471Z,11.3
2018-09-02T02:29:40.389Z,11.3
2018-09-02T02:30:42.990Z,11.3
2018-09-02T02:31:43.322Z,11.3
2018-09-02T02:32:44.240Z,11.3
2018-09-02T02:33:44.176Z,11.3
2018-09-02T02:34:44.085Z,11.3
2018-09-02T02:35:44.017Z,11.3
2018-09-02T02:36:43.922Z,11.3
2018-09-02T02:37:43.839Z,11.3
2018-09-02T02:38:43.736Z,11.3
2018-09-02T02:39:43.639Z,11.2
2018-09-02T02:40:43.776Z,11.2
2018-09-02T02:41:44.138Z,11.2
2018-09-02T02:42:44.036Z,11.3
2018-09-02T02:43:43.949Z,11.2
2018-09-02T02:44:43.864Z,11.2
2018-09-02T02:45:43.798Z,11.3
2018-09-02T02:46:43.701Z,11.3
2018-09-02T02:47:43.621Z,11.3
2018-09-02T02:48:43.532Z,11.2
2018-09-02T02:49:43.461Z,11.3
2018-09-02T02:50:43.376Z,11.2
2018-09-02T02:51:43.754Z,11.2
2018-09-02T02:52:43.662Z,11.3
2018-09-02T02:53:43.560Z,11.3
2018-09-02T02:54:43.462Z,11.4
2018-09-02T02:55:43.387Z,11.4
2018-09-02T02:56:43.533Z,11.4
2018-09-02T02:57:43.437Z,11.4
2018-09-02T02:58:43.368Z,11.4
2018-09-02T02:59:43.281Z,11.5
2018-09-02T03:00:43.204Z,11.5
2018-09-02T03:01:43.626Z,11.5
2018-09-02T03:02:43.543Z,11.6
2018-09-02T03:03:43.670Z,11.6
2018-09-02T03:04:43.577Z,11.6
2018-09-02T03:05:43.479Z,11.7
2018-09-02T03:06:43.616Z,11.7
2018-09-02T03:07:43.570Z,11.8
2018-09-02T03:08:43.477Z,11.9
2018-09-02T03:09:43.384Z,11.9
2018-09-02T03:10:43.442Z,11.9
2018-09-02T03:11:44.046Z,12
2018-09-02T03:12:44.982Z,11.9
2018-09-02T03:13:44.893Z,11.8
2018-09-02T03:14:44.806Z,11.8
2018-09-02T03:15:44.728Z,11.8
2018-09-02T03:16:44.633Z,11.8
2018-09-02T03:17:44.548Z,11.8
2018-09-02T03:18:44.470Z,11.8
2018-09-02T03:19:44.388Z,11.8
2018-09-02T03:20:44.292Z,11.7
2018-09-02T03:21:44.648Z,11.7
2018-09-02T03:22:44.582Z,11.6
2018-09-02T03:23:44.497Z,11.6
2018-09-02T03:24:44.412Z,11.6
2018-09-02T03:25:44.314Z,11.6
2018-09-02T03:26:44.451Z,11.5
2018-09-02T03:27:44.362Z,11.5
2018-09-02T03:28:44.283Z,11.5
2018-09-02T03:29:44.193Z,11.5
2018-09-02T03:30:44.137Z,11.5
2018-09-02T03:31:44.563Z,11.5
2018-09-02T03:32:44.490Z,11.5
2018-09-02T03:33:44.639Z,11.5
2018-09-02T03:34:44.543Z,11.5
2018-09-02T03:35:44.474Z,11.5
2018-09-02T03:36:44.391Z,11.5
2018-09-02T03:37:44.297Z,11.5
2018-09-02T03:38:44.213Z,11.5
2018-09-02T03:39:44.130Z,11.5
2018-09-02T03:40:44.037Z,11.6
2018-09-02T03:41:44.610Z,11.6
2018-09-02T03:42:44.514Z,11.6
2018-09-02T03:43:44.441Z,11.6
2018-09-02T03:44:44.355Z,11.6
2018-09-02T03:45:44.269Z,11.6
2018-09-02T03:46:44.196Z,11.5
2018-09-02T03:47:44.119Z,11.5
2018-09-02T03:48:44.038Z,11.5
2018-09-02T03:49:43.982Z,11.5
2018-09-02T03:50:43.906Z,11.5
2018-09-02T03:51:44.264Z,11.5
2018-09-02T03:52:44.180Z,11.5
2018-09-02T03:53:44.089Z,11.5
2018-09-02T03:54:44.007Z,11.5
2018-09-02T03:55:43.917Z,11.5
2018-09-02T03:56:43.830Z,11.5
2018-09-02T03:57:43.958Z,11.5
2018-09-02T03:58:43.863Z,11.5
2018-09-02T03:59:43.794Z,11.5
2018-09-02T04:00:43.709Z,11.5
2018-09-02T04:01:44.069Z,11.5
2018-09-02T04:02:43.964Z,11.4
2018-09-02T04:03:43.875Z,11.4
2018-09-02T04:04:43.859Z,11.4
2018-09-02T04:05:43.794Z,11.4
2018-09-02T04:06:43.705Z,11.5
2018-09-02T04:07:43.846Z,11.4
2018-09-02T04:08:43.754Z,11.4
2018-09-02T04:09:43.661Z,11.4
2018-09-02T04:10:43.599Z,11.4
2018-09-02T04:11:44.198Z,11.4
2018-09-02T04:12:44.098Z,11.4
2018-09-02T04:13:44.010Z,11.3
2018-09-02T04:14:43.921Z,11.3
2018-09-02T04:15:43.841Z,11.3
2018-09-02T04:16:43.760Z,11.4
2018-09-02T04:17:43.677Z,11.3
2018-09-02T04:18:43.604Z,11.4
2018-09-02T04:19:43.562Z,11.3
2018-09-02T04:20:43.481Z,11.3
2018-09-02T04:21:43.836Z,11.3
2018-09-02T04:22:43.759Z,11.3
2018-09-02T04:23:43.661Z,11.3
2018-09-02T04:24:43.568Z,11.3
2018-09-02T04:25:43.500Z,11.3
2018-09-02T04:26:43.413Z,11.3
2018-09-02T04:27:43.339Z,11.3
2018-09-02T04:28:43.465Z,11.4
2018-09-02T04:29:43.380Z,11.3
2018-09-02T04:30:43.303Z,11.3
2018-09-02T04:31:43.648Z,11.4
2018-09-02T04:32:43.620Z,11.4
2018-09-02T04:33:43.796Z,11.3
2018-09-02T04:34:44.157Z,11.4
2018-09-02T04:35:44.085Z,11.4
2018-09-02T04:36:43.993Z,11.4
2018-09-02T04:37:43.924Z,11.4
2018-09-02T04:38:43.878Z,11.5
2018-09-02T04:39:43.800Z,11.3
2018-09-02T04:40:43.729Z,11.5
2018-09-02T04:41:44.105Z,11.5
2018-09-02T04:42:44.011Z,11.5
2018-09-02T04:43:43.918Z,11.5
2018-09-02T04:44:44.827Z,11.5
2018-09-02T04:45:44.737Z,11.5
2018-09-02T04:46:44.649Z,11.5
2018-09-02T04:47:44.557Z,11.5
2018-09-02T04:48:44.459Z,11.5
2018-09-02T04:49:44.369Z,11.5
2018-09-02T04:50:44.556Z,11.5
2018-09-02T04:51:44.923Z,11.5
2018-09-02T04:52:44.839Z,11.5
2018-09-02T04:53:44.745Z,11.4
2018-09-02T04:54:44.700Z,11.4
2018-09-02T04:55:44.603Z,11.4
2018-09-02T04:56:44.520Z,11.4
2018-09-02T04:57:44.452Z,11.4
2018-09-02T04:58:44.359Z,11.4
2018-09-02T04:59:44.281Z,11.5
2018-09-02T05:00:44.252Z,11.4
2018-09-02T05:01:44.619Z,11.4
2018-09-02T05:02:44.551Z,11.4
2018-09-02T05:03:44.468Z,11.4
2018-09-02T05:04:44.391Z,11.4
2018-09-02T05:05:44.314Z,11.3
2018-09-02T05:06:44.891Z,11.3
2018-09-02T05:07:44.825Z,11.3
2018-09-02T05:08:44.754Z,11.3
2018-09-02T05:09:44.669Z,11.3
2018-09-02T05:10:44.567Z,11.3
2018-09-02T05:11:44.920Z,11.3
2018-09-02T05:12:44.855Z,11.3
2018-09-02T05:13:45.010Z,11.3
2018-09-02T05:14:44.904Z,11.3
2018-09-02T05:15:44.817Z,11.4
2018-09-02T05:16:44.757Z,11.4
2018-09-02T05:17:44.677Z,11.4
2018-09-02T05:18:44.607Z,11.4
2018-09-02T05:19:44.749Z,11.4
2018-09-02T05:20:44.671Z,11.4
2018-09-02T05:21:45.043Z,11.5
2018-09-02T05:22:45.972Z,11.5
2018-09-02T05:23:46.257Z,11.5
2018-09-02T05:24:46.153Z,11.5
2018-09-02T05:25:46.057Z,11.5
2018-09-02T05:26:45.972Z,11.4
2018-09-02T05:27:46.896Z,11.5
2018-09-02T05:28:46.843Z,11.5
2018-09-02T05:29:46.740Z,11.5
2018-09-02T05:30:46.644Z,11.4
2018-09-02T05:31:47.007Z,11.4
2018-09-02T05:32:46.921Z,11.3
2018-09-02T05:33:46.831Z,11.3
2018-09-02T05:34:46.757Z,11.3
2018-09-02T05:35:46.673Z,11.4
2018-09-02T05:36:46.770Z,11.4
2018-09-02T05:37:46.858Z,11.4
2018-09-02T05:38:46.784Z,11.4
2018-09-02T05:39:46.710Z,11.4
2018-09-02T05:40:46.633Z,11.4
2018-09-02T05:41:46.989Z,11.4
2018-09-02T05:42:46.912Z,11.4
2018-09-02T05:43:47.175Z,11.4
2018-09-02T05:44:47.188Z,11.4
2018-09-02T05:45:47.104Z,11.4
2018-09-02T05:46:47.014Z,11.4
2018-09-02T05:47:49.737Z,11.4
2018-09-02T05:48:49.628Z,11.4
2018-09-02T05:49:49.550Z,11.4
2018-09-02T05:50:49.701Z,11.4
2018-09-02T05:51:50.081Z,11.4
2018-09-02T05:52:51.008Z,11.4
2018-09-02T05:53:51.145Z,11.4
2018-09-02T05:54:51.069Z,11.3
2018-09-02T05:55:50.972Z,11.4
2018-09-02T05:56:50.865Z,11.3
2018-09-02T05:57:50.765Z,11.4
2018-09-02T05:58:50.676Z,11.4
2018-09-02T05:59:50.606Z,11.4
2018-09-02T06:00:50.523Z,11.4
2018-09-02T06:01:51.101Z,11.4
2018-09-02T06:02:51.414Z,11.4
2018-09-02T06:03:51.927Z,11.4
2018-09-02T06:04:51.868Z,11.4
2018-09-02T06:05:52.800Z,11.4
2018-09-02T06:06:52.712Z,11.4
2018-09-02T06:07:52.616Z,11.5
2018-09-02T06:08:52.540Z,11.4
2018-09-02T06:09:52.488Z,11.4
2018-09-02T06:10:52.395Z,11.5
2018-09-02T06:11:52.734Z,11.5
2018-09-02T06:12:52.643Z,11.5
2018-09-02T06:13:52.556Z,11.5
2018-09-02T06:14:52.467Z,11.5
2018-09-02T06:15:52.403Z,11.5
2018-09-02T06:16:52.311Z,11.5
2018-09-02T06:17:52.218Z,11.6
2018-09-02T06:18:52.390Z,11.6
2018-09-02T06:19:52.368Z,11.6
2018-09-02T06:20:52.298Z,11.7
2018-09-02T06:21:52.674Z,11.7
2018-09-02T06:22:52.582Z,11.8
2018-09-02T06:23:52.500Z,11.8
2018-09-02T06:24:52.424Z,11.8
2018-09-02T06:25:52.350Z,11.9
2018-09-02T06:26:52.267Z,11.9
2018-09-02T06:27:52.167Z,12
2018-09-02T06:28:52.081Z,12
2018-09-02T06:29:52.061Z,12
2018-09-02T06:30:52.196Z,11.9
2018-09-02T06:31:52.559Z,12
2018-09-02T06:32:52.932Z,12
2018-09-02T06:33:53.456Z,12
2018-09-02T06:34:53.371Z,12
2018-09-02T06:35:53.305Z,11.9
2018-09-02T06:36:53.213Z,11.9
2018-09-02T06:37:53.130Z,11.8
2018-09-02T06:38:53.047Z,11.9
2018-09-02T06:39:52.963Z,11.9
2018-09-02T06:40:52.878Z,11.9
2018-09-02T06:41:53.278Z,11.9
2018-09-02T06:42:53.204Z,11.9
2018-09-02T06:43:53.117Z,11.9
2018-09-02T06:44:53.030Z,11.9
2018-09-02T06:45:53.380Z,11.9
2018-09-02T06:46:53.549Z,11.9
2018-09-02T06:47:53.484Z,11.9
2018-09-02T06:48:53.399Z,11.9
2018-09-02T06:49:53.322Z,11.9
2018-09-02T06:50:53.227Z,11.9
2018-09-02T06:51:53.605Z,11.9
2018-09-02T06:52:53.526Z,12
2018-09-02T06:53:53.466Z,11.9
2018-09-02T06:54:53.372Z,11.9
2018-09-02T06:55:53.295Z,11.9
2018-09-02T06:56:53.206Z,12
2018-09-02T06:57:53.155Z,12
2018-09-02T06:58:53.095Z,12
2018-09-02T06:59:53.010Z,12
2018-09-02T07:00:52.924Z,12
2018-09-02T07:01:53.308Z,12
2018-09-02T07:02:53.240Z,12
2018-09-02T07:03:53.200Z,12
2018-09-02T07:04:53.099Z,12
2018-09-02T07:05:53.004Z,11.9
2018-09-02T07:06:52.989Z,11.9
2018-09-02T07:07:52.972Z,11.9
2018-09-02T07:08:52.889Z,11.9
2018-09-02T07:09:52.802Z,11.9
2018-09-02T07:10:52.701Z,11.9
2018-09-02T07:11:53.124Z,11.9
2018-09-02T07:12:53.064Z,11.8
2018-09-02T07:13:52.984Z,11.8
2018-09-02T07:14:52.974Z,11.8
2018-09-02T07:15:52.875Z,11.8
2018-09-02T07:16:52.785Z,11.8
2018-09-02T07:17:52.733Z,11.8
2018-09-02T07:18:52.637Z,11.8
2018-09-02T07:19:52.572Z,11.9
2018-09-02T07:20:52.479Z,11.9
2018-09-02T07:21:52.819Z,11.9
2018-09-02T07:22:52.730Z,11.9
2018-09-02T07:23:52.677Z,11.9
2018-09-02T07:24:52.598Z,11.9
2018-09-02T07:25:52.501Z,11.9
2018-09-02T07:26:52.414Z,11.9
2018-09-02T07:27:52.330Z,11.9
2018-09-02T07:28:52.248Z,11.8
2018-09-02T07:29:52.163Z,11.9
2018-09-02T07:30:52.069Z,11.9
2018-09-02T07:31:52.787Z,11.9
2018-09-02T07:32:52.688Z,11.9
2018-09-02T07:33:52.627Z,11.9
2018-09-02T07:34:52.583Z,11.8
2018-09-02T07:35:52.490Z,11.9
2018-09-02T07:36:52.405Z,11.9
2018-09-02T07:37:52.317Z,11.9
2018-09-02T07:38:52.241Z,11.9
2018-09-02T07:39:52.216Z,11.9
2018-09-02T07:40:52.139Z,11.9
2018-09-02T07:41:52.474Z,11.9
2018-09-02T07:42:52.388Z,11.9
2018-09-02T07:43:52.705Z,11.9
2018-09-02T07:44:53.298Z,12.1
2018-09-02T07:45:53.197Z,12
2018-09-02T07:46:53.107Z,12
2018-09-02T07:47:53.061Z,12.1
2018-09-02T07:48:52.980Z,12.1
2018-09-02T07:49:52.910Z,12.2
2018-09-02T07:50:52.824Z,12.2
2018-09-02T07:51:53.216Z,12.3
2018-09-02T07:52:53.131Z,12.4
2018-09-02T07:53:53.076Z,12.3
2018-09-02T07:54:53.013Z,12.3
2018-09-02T07:55:52.925Z,12.3
2018-09-02T07:56:52.852Z,12.3
2018-09-02T07:57:52.755Z,12.3
2018-09-02T07:58:52.682Z,12.3
2018-09-02T07:59:52.597Z,12.3
2018-09-02T08:00:52.522Z,12.4
2018-09-02T08:01:52.883Z,12.5
2018-09-02T08:02:53.254Z,12.5
2018-09-02T08:03:53.228Z,12.5
2018-09-02T08:04:53.143Z,12.5
2018-09-02T08:05:53.072Z,12.6
2018-09-02T08:06:53.001Z,12.6
2018-09-02T08:07:52.935Z,12.6
2018-09-02T08:08:52.860Z,12.6
2018-09-02T08:09:52.784Z,12.6
2018-09-02T08:10:52.728Z,12.7
2018-09-02T08:11:53.094Z,12.7
2018-09-02T08:12:53.793Z,12.7
2018-09-02T08:13:54.899Z,12.8
2018-09-02T08:14:54.813Z,12.8
2018-09-02T08:15:54.804Z,12.8
2018-09-02T08:16:54.735Z,12.9
2018-09-02T08:17:54.637Z,12.9
2018-09-02T08:18:54.552Z,12.9
2018-09-02T08:19:54.647Z,12.9
2018-09-02T08:20:54.975Z,12.9
2018-09-02T08:21:55.343Z,13
2018-09-02T08:22:55.258Z,13
2018-09-02T08:23:55.177Z,13
2018-09-02T08:24:55.099Z,13
2018-09-02T08:25:55.019Z,13
2018-09-02T08:26:54.957Z,13
2018-09-02T08:27:54.882Z,12.9
2018-09-02T08:28:54.799Z,12.9
2018-09-02T08:29:54.723Z,12.9
2018-09-02T08:30:54.630Z,12.9
2018-09-02T08:31:55.004Z,12.9
2018-09-02T08:32:55.093Z,13
2018-09-02T08:33:55.170Z,12.9
2018-09-02T08:34:55.061Z,13
2018-09-02T08:35:54.981Z,13
2018-09-02T08:36:54.906Z,13
2018-09-02T08:37:54.845Z,13
2018-09-02T08:38:55.139Z,13
2018-09-02T08:39:55.746Z,12.9
2018-09-02T08:40:55.651Z,12.9
2018-09-02T08:41:56.081Z,12.9
2018-09-02T08:42:56.000Z,12.8
2018-09-02T08:43:55.907Z,12.8
2018-09-02T08:44:55.820Z,12.9
2018-09-02T08:45:55.742Z,12.9
2018-09-02T08:46:55.704Z,13
2018-09-02T08:47:55.631Z,13
2018-09-02T08:48:55.563Z,13
2018-09-02T08:49:55.475Z,13.1
2018-09-02T08:50:58.386Z,13.2
2018-09-02T08:51:58.779Z,13.2
2018-09-02T08:52:58.746Z,13.3
2018-09-02T08:53:58.903Z,13.3
2018-09-02T08:54:58.823Z,13.3
2018-09-02T08:55:58.938Z,13.4
2018-09-02T08:56:59.189Z,13.3
2018-09-02T08:57:59.131Z,13.3
2018-09-02T08:58:59.052Z,13.3
2018-09-02T08:59:58.964Z,13.2
2018-09-02T09:00:58.872Z,13.2
2018-09-02T09:01:59.400Z,13.2
2018-09-02T09:02:59.334Z,13.2
2018-09-02T09:03:59.241Z,13.2
2018-09-02T09:04:59.190Z,13.3
2018-09-02T09:05:59.095Z,13.4
2018-09-02T09:06:59.018Z,13.5
2018-09-02T09:08:02.238Z,13.5
2018-09-02T09:09:04.014Z,13.5
2018-09-02T09:10:05.599Z,13.5
2018-09-02T09:11:05.557Z,13.4
2018-09-02T09:12:05.997Z,13.4
2018-09-02T09:13:05.952Z,13.5
2018-09-02T09:14:06.216Z,13.6
2018-09-02T09:15:06.533Z,13.6
2018-09-02T09:16:06.464Z,13.7
2018-09-02T09:17:06.942Z,13.6
2018-09-02T09:18:07.267Z,13.7
2018-09-02T09:19:07.207Z,13.7
2018-09-02T09:20:07.129Z,13.7
2018-09-02T09:21:07.028Z,13.7
2018-09-02T09:22:08.132Z,13.8
2018-09-02T09:23:08.559Z,13.8
2018-09-02T09:24:08.709Z,13.8
2018-09-02T09:25:09.418Z,13.8
2018-09-02T09:26:09.812Z,13.9
2018-09-02T09:27:09.719Z,13.9
2018-09-02T09:28:09.651Z,13.9
2018-09-02T09:29:09.579Z,14
2018-09-02T09:30:09.506Z,14.1
2018-09-02T09:31:09.418Z,14.1
2018-09-02T09:32:09.964Z,14.1
2018-09-02T09:33:10.016Z,14
2018-09-02T09:34:09.927Z,13.9
2018-09-02T09:35:09.834Z,14
2018-09-02T09:36:09.757Z,14
2018-09-02T09:37:09.686Z,14
2018-09-02T09:38:09.885Z,14
2018-09-02T09:39:12.890Z,14
2018-09-02T09:40:12.798Z,13.9
2018-09-02T09:41:13.394Z,13.9
2018-09-02T09:42:13.744Z,13.9
2018-09-02T09:43:13.708Z,13.8
2018-09-02T09:44:13.634Z,13.8
2018-09-02T09:45:13.538Z,13.8
2018-09-02T09:46:13.676Z,13.9
2018-09-02T09:47:13.597Z,13.8
2018-09-02T09:48:13.531Z,13.8
2018-09-02T09:49:13.611Z,13.9
2018-09-02T09:50:13.777Z,14
2018-09-02T09:51:13.700Z,13.9
2018-09-02T09:52:14.054Z,14
2018-09-02T09:53:13.968Z,14
2018-09-02T09:54:13.908Z,13.9
2018-09-02T09:55:13.820Z,13.9
2018-09-02T09:56:13.730Z,14.1
2018-09-02T09:57:14.299Z,14.1
2018-09-02T09:58:14.238Z,14.1
2018-09-02T09:59:14.178Z,14.1
2018-09-02T10:00:14.089Z,14.1
2018-09-02T10:01:14.054Z,14.1
2018-09-02T10:02:14.442Z,14.1
2018-09-02T10:03:14.381Z,14.1
2018-09-02T10:04:14.316Z,14.1
2018-09-02T10:05:17.087Z,14.1
2018-09-02T10:06:16.995Z,14.1
2018-09-02T10:07:16.909Z,14.1
2018-09-02T10:08:16.825Z,14.2
2018-09-02T10:09:19.405Z,14.3
2018-09-02T10:10:19.501Z,14.3
2018-09-02T10:11:19.737Z,14.3
2018-09-02T10:12:20.941Z,14.4
2018-09-02T10:13:21.104Z,14.4
2018-09-02T10:14:21.035Z,14.3
2018-09-02T10:15:20.974Z,14.4
2018-09-02T10:16:20.934Z,14.5
2018-09-02T10:17:21.127Z,14.7
2018-09-02T10:18:21.372Z,14.6
2018-09-02T10:19:21.315Z,14.7
2018-09-02T10:20:21.217Z,14.7
2018-09-02T10:21:21.130Z,14.8
2018-09-02T10:22:21.747Z,14.8
2018-09-02T10:23:21.650Z,14.8
2018-09-02T10:24:21.591Z,14.8
2018-09-02T10:25:21.514Z,14.8
2018-09-02T10:26:21.423Z,14.7
2018-09-02T10:27:21.513Z,14.7
2018-09-02T10:28:21.707Z,14.6
2018-09-02T10:29:21.625Z,14.5
2018-09-02T10:30:21.550Z,14.5
2018-09-02T10:31:21.704Z,14.5
2018-09-02T10:32:22.056Z,14.6
2018-09-02T10:33:22.237Z,14.6
2018-09-02T10:34:22.563Z,14.6
2018-09-02T10:35:22.473Z,14.5
2018-09-02T10:36:31.325Z,14.6
2018-09-02T10:37:31.241Z,14.5
2018-09-02T10:38:31.156Z,14.6
2018-09-02T10:39:31.749Z,14.4
2018-09-02T10:40:31.653Z,14.5
2018-09-02T10:41:31.843Z,14.5
2018-09-02T10:42:32.718Z,14.5
2018-09-02T10:43:32.663Z,14.6
2018-09-02T10:44:32.608Z,14.8
2018-09-02T10:45:32.522Z,14.8
2018-09-02T10:46:32.444Z,14.6
2018-09-02T10:47:32.346Z,14.4
2018-09-02T10:48:32.258Z,14.4
2018-09-02T10:49:32.260Z,14.4
2018-09-02T10:50:32.461Z,14.4
2018-09-02T10:51:32.375Z,14.4
2018-09-02T10:52:33.016Z,14.5
2018-09-02T10:53:33.168Z,14.5
2018-09-02T10:54:33.340Z,14.5
2018-09-02T10:55:33.273Z,14.6
2018-09-02T10:56:33.179Z,14.4
2018-09-02T10:57:33.084Z,14.3
2018-09-02T10:58:33.044Z,14.4
2018-09-02T10:59:33.132Z,14.4
2018-09-02T11:00:33.177Z,14.4
2018-09-02T11:01:33.326Z,14.5
2018-09-02T11:02:33.899Z,14.5
2018-09-02T11:03:33.884Z,14.5
2018-09-02T11:04:33.801Z,14.5
2018-09-02T11:05:33.716Z,14.4
2018-09-02T11:06:34.646Z,14.3
2018-09-02T11:07:34.801Z,14.3
2018-09-02T11:08:35.085Z,14.3
2018-09-02T11:09:35.430Z,14.2
2018-09-02T11:10:35.396Z,14.4
2018-09-02T11:11:35.406Z,14.4
2018-09-02T11:12:38.935Z,14.4
2018-09-02T11:13:39.377Z,14.3
2018-09-02T11:14:39.975Z,14.2
2018-09-02T11:15:39.873Z,14.2
2018-09-02T11:16:39.801Z,14.2
2018-09-02T11:17:39.712Z,14.3
2018-09-02T11:18:39.627Z,14.4
2018-09-02T11:19:39.772Z,14.3
2018-09-02T11:20:39.688Z,14.3
2018-09-02T11:21:39.615Z,14.4
2018-09-02T11:22:40.993Z,14.3
2018-09-02T11:23:40.913Z,14.3
2018-09-02T11:24:40.817Z,14.4
2018-09-02T11:25:40.722Z,14.4
2018-09-02T11:26:40.653Z,14.3
2018-09-02T11:27:40.595Z,14.3
2018-09-02T11:28:40.512Z,14.3
2018-09-02T11:29:40.416Z,14.5
2018-09-02T11:30:40.330Z,14.6
2018-09-02T11:31:40.236Z,14.6
2018-09-02T11:32:40.628Z,14.6
2018-09-02T11:33:40.551Z,14.6
2018-09-02T11:34:40.446Z,14.6
2018-09-02T11:35:40.368Z,14.6
2018-09-02T11:36:40.291Z,14.5
2018-09-02T11:37:40.224Z,14.5
2018-09-02T11:38:40.361Z,14.4
2018-09-02T11:39:40.268Z,14.4
2018-09-02T11:40:40.166Z,14.3
2018-09-02T11:41:41.093Z,14.3
2018-09-02T11:42:41.499Z,14.4
2018-09-02T11:43:41.420Z,14.3
2018-09-02T11:44:41.366Z,14.3
2018-09-02T11:45:41.280Z,14.1
2018-09-02T11:46:41.216Z,14.2
2018-09-02T11:47:41.252Z,14.2
2018-09-02T11:48:44.199Z,14.2
2018-09-02T11:49:44.122Z,14.3
2018-09-02T11:50:44.035Z,14.4
2018-09-02T11:51:43.949Z,14.5
2018-09-02T11:52:44.322Z,14.6
2018-09-02T11:53:44.221Z,14.6
2018-09-02T11:54:44.367Z,14.7
2018-09-02T11:55:44.269Z,14.6
2018-09-02T11:56:44.177Z,14.7
2018-09-02T11:57:44.659Z,14.5
2018-09-02T11:58:44.936Z,14.5
2018-09-02T11:59:45.844Z,14.6
2018-09-02T12:00:46.028Z,14.5
2018-09-02T12:01:45.943Z,14.4
2018-09-02T12:02:46.372Z,14.4
2018-09-02T12:03:46.321Z,14.5
2018-09-02T12:04:46.455Z,14.7
2018-09-02T12:05:49.418Z,14.6
2018-09-02T12:06:49.348Z,14.7
2018-09-02T12:07:49.315Z,14.7
2018-09-02T12:08:49.221Z,14.7
2018-09-02T12:09:49.150Z,14.7
2018-09-02T12:10:49.059Z,14.8
2018-09-02T12:11:49.441Z,14.6
2018-09-02T12:12:51.212Z,14.6
2018-09-02T12:13:51.226Z,14.6
2018-09-02T12:14:52.148Z,14.7
2018-09-02T12:15:52.805Z,14.7
2018-09-02T12:16:52.975Z,14.7
2018-09-02T12:17:52.933Z,14.7
2018-09-02T12:18:52.857Z,14.8
2018-09-02T12:19:52.765Z,14.8
2018-09-02T12:20:52.707Z,14.8
2018-09-02T12:21:52.627Z,14.7
2018-09-02T12:22:56.003Z,14.8
2018-09-02T12:23:55.946Z,14.7
2018-09-02T12:24:55.867Z,14.7
2018-09-02T12:25:55.781Z,14.7
2018-09-02T12:26:55.744Z,14.6
2018-09-02T12:27:55.671Z,14.7
2018-09-02T12:28:55.592Z,14.8
2018-09-02T12:29:55.506Z,14.8
2018-09-02T12:30:55.407Z,14.8
2018-09-02T12:31:55.304Z,14.9
2018-09-02T12:32:55.665Z,14.9
2018-09-02T12:33:55.609Z,14.8
2018-09-02T12:34:55.520Z,14.8
2018-09-02T12:35:55.457Z,14.8
2018-09-02T12:36:55.397Z,14.7
2018-09-02T12:37:55.326Z,14.8
2018-09-02T12:38:55.244Z,14.8
2018-09-02T12:39:55.179Z,14.7
2018-09-02T12:40:55.090Z,14.7
2018-09-02T12:41:55.011Z,14.6
2018-09-02T12:42:55.580Z,14.7
2018-09-02T12:43:55.487Z,14.6
2018-09-02T12:44:55.446Z,14.7
2018-09-02T12:45:55.363Z,14.7
2018-09-02T12:46:55.269Z,14.6
2018-09-02T12:47:55.697Z,14.7
2018-09-02T12:48:56.473Z,14.7
2018-09-02T12:49:56.420Z,14.7
2018-09-02T12:50:56.376Z,14.7
2018-09-02T12:51:56.310Z,14.7
2018-09-02T12:52:57.286Z,14.8
2018-09-02T12:53:57.190Z,14.8
2018-09-02T12:54:57.126Z,14.7
2018-09-02T12:55:57.417Z,14.8
2018-09-02T12:56:57.338Z,14.7
2018-09-02T12:57:57.247Z,14.7
2018-09-02T12:58:57.156Z,14.6
2018-09-02T12:59:57.155Z,14.5
2018-09-02T13:00:57.062Z,14.6
2018-09-02T13:01:56.973Z,14.6
2018-09-02T13:02:57.598Z,14.7
2018-09-02T13:03:57.520Z,14.8
2018-09-02T13:04:57.461Z,14.8
2018-09-02T13:05:57.391Z,14.8
2018-09-02T13:06:57.312Z,14.6
2018-09-02T13:07:57.221Z,14.6
2018-09-02T13:08:57.156Z,14.6
2018-09-02T13:09:57.090Z,14.7
2018-09-02T13:10:57.027Z,14.7
2018-09-02T13:11:56.947Z,14.7
2018-09-02T13:12:57.339Z,14.8
2018-09-02T13:13:57.290Z,14.8
2018-09-02T13:14:57.881Z,15
2018-09-02T13:15:57.799Z,14.9
2018-09-02T13:16:57.724Z,14.8
2018-09-02T13:17:57.653Z,14.6
2018-09-02T13:18:57.709Z,14.6
2018-09-02T13:19:58.015Z,14.6
2018-09-02T13:20:57.943Z,14.6
2018-09-02T13:21:57.868Z,14.7
2018-09-02T13:22:58.276Z,14.7